createdAt,value
2022-11-12T00:07:39.716Z,3.50
2022-11-12T00:18:01.369Z,3.20
2022-11-12T00:28:25.038Z,2.80
2022-11-12T00:38:47.242Z,2.50
2022-11-12T00:49:10.725Z,2.00
2022-11-12T00:59:32.805Z,1.70
2022-11-12T01:09:55.905Z,1.60
2022-11-12T01:20:18.066Z,1.40
2022-11-12T01:30:41.296Z,1.30
2022-11-12T01:41:04.111Z,1.30
2022-11-12T01:51:34.433Z,1.20
2022-11-12T02:01:56.213Z,0.90
2022-11-12T02:12:33.449Z,0.80
2022-11-12T02:22:56.931Z,0.60
2022-11-12T02:33:19.116Z,0.50
2022-11-12T02:43:42.758Z,0.40
2022-11-12T02:54:04.946Z,0.40
2022-11-12T03:04:28.041Z,0.40
2022-11-12T03:14:50.210Z,0.40
2022-11-12T03:25:13.357Z,0.50
2022-11-12T03:35:36.398Z,0.80
2022-11-12T03:45:59.678Z,0.90
2022-11-12T03:56:21.766Z,0.70
2022-11-12T04:07:02.646Z,0.50
2022-11-12T04:17:42.091Z,0.50
2022-11-12T04:28:05.326Z,0.50
2022-11-12T04:38:27.422Z,0.30
2022-11-12T04:48:51.241Z,0.10
2022-11-12T04:59:12.931Z,-0.10
2022-11-12T05:09:36.284Z,-0.30
2022-11-12T05:19:58.433Z,-0.40
2022-11-12T05:30:22.055Z,-0.50
2022-11-12T05:40:46.541Z,-0.60
2022-11-12T05:51:13.695Z,-0.50
2022-11-12T06:01:38.395Z,-0.50
2022-11-12T06:12:06.221Z,-0.50
2022-11-12T06:22:28.721Z,-0.40
2022-11-12T06:32:52.980Z,-0.20
2022-11-12T06:43:14.777Z,0.40
2022-11-12T06:53:37.941Z,1.00
2022-11-12T07:03:59.751Z,1.80
2022-11-12T07:14:22.924Z,2.90
2022-11-12T07:24:44.757Z,4.90
2022-11-12T07:35:09.365Z,9.10
2022-11-12T07:45:31.522Z,10.00
2022-11-12T07:55:59.988Z,12.70
2022-11-12T08:06:22.746Z,14.00
2022-11-12T08:16:46.741Z,17.20
2022-11-12T08:27:08.720Z,19.80
2022-11-12T08:37:31.825Z,22.50
2022-11-12T08:47:53.650Z,24.70
2022-11-12T08:58:17.014Z,26.30
2022-11-12T09:08:39.915Z,28.30
2022-11-12T09:19:03.169Z,30.30
2022-11-12T09:29:25.220Z,31.30
2022-11-12T09:39:48.761Z,32.20
2022-11-12T09:50:24.369Z,32.10
2022-11-12T10:00:57.078Z,34.20
2022-11-12T10:12:11.389Z,35.40
2022-11-12T10:23:01.573Z,36.40
2022-11-12T10:33:23.241Z,37.40
2022-11-12T10:43:56.872Z,38.30
2022-11-12T10:54:30.089Z,37.60
2022-11-12T11:04:53.468Z,37.60
2022-11-12T11:15:22.042Z,39.70
2022-11-12T11:25:48.943Z,39.70
2022-11-12T11:36:23.337Z,40.20
2022-11-12T11:47:00.246Z,40.00
2022-11-12T11:57:28.540Z,39.70
2022-11-12T12:08:01.294Z,39.80
2022-11-12T12:18:35.960Z,38.80
2022-11-12T12:29:05.457Z,38.30
2022-11-12T12:39:36.694Z,36.70
2022-11-12T12:50:01.406Z,36.60
2022-11-12T13:00:29.789Z,35.70
2022-11-12T13:10:53.783Z,35.10
2022-11-12T13:21:18.092Z,34.40
2022-11-12T13:31:42.041Z,32.90
2022-11-12T13:42:32.766Z,31.10
2022-11-12T13:52:56.285Z,28.90
2022-11-12T14:03:20.271Z,27.70
2022-11-12T14:13:58.870Z,25.70
2022-11-12T14:24:21.819Z,23.20
2022-11-12T14:34:45.105Z,19.50
2022-11-12T14:45:16.414Z,15.20
2022-11-12T14:55:43.643Z,13.00
2022-11-12T15:06:12.213Z,11.30
2022-11-12T15:16:37.349Z,10.00
2022-11-12T15:27:01.733Z,8.90
2022-11-12T15:37:29.115Z,8.00
2022-11-12T15:47:51.415Z,7.30
2022-11-12T15:58:19.527Z,6.60
2022-11-12T16:08:42.660Z,6.00
2022-11-12T16:19:10.581Z,5.60
2022-11-12T16:29:32.668Z,5.10
2022-11-12T16:39:56.303Z,4.70
2022-11-12T16:50:21.863Z,4.40
2022-11-12T17:00:48.167Z,4.00
2022-11-12T17:11:10.930Z,3.70
2022-11-12T17:21:34.433Z,3.40
2022-11-12T17:31:56.638Z,3.00
2022-11-12T17:42:20.069Z,2.80
2022-11-12T17:52:42.292Z,2.60
2022-11-12T18:03:05.884Z,2.70
2022-11-12T18:13:28.880Z,2.70
2022-11-12T18:23:52.826Z,2.90
2022-11-12T18:34:16.074Z,2.30
2022-11-12T18:44:39.457Z,2.00
2022-11-12T18:55:03.036Z,1.80
2022-11-12T19:05:26.432Z,1.80
2022-11-12T19:15:48.612Z,1.70
2022-11-12T19:26:14.964Z,1.50
2022-11-12T19:36:36.966Z,1.80
2022-11-12T19:47:00.296Z,2.60
2022-11-12T19:57:22.966Z,3.30
2022-11-12T20:07:49.545Z,4.10
2022-11-12T20:18:11.672Z,4.60
2022-11-12T20:28:36.584Z,5.00
2022-11-12T20:38:58.804Z,5.20
2022-11-12T20:49:22.561Z,5.40
2022-11-12T20:59:44.807Z,5.40
2022-11-12T21:10:09.395Z,5.30
2022-11-12T21:20:31.385Z,5.30
2022-11-12T21:30:55.307Z,5.40
2022-11-12T21:41:19.510Z,5.30
2022-11-12T21:51:42.990Z,5.40
2022-11-12T22:02:05.213Z,5.40
2022-11-12T22:12:28.885Z,5.50
2022-11-12T22:22:53.527Z,5.50
2022-11-12T22:33:16.901Z,5.60
2022-11-12T22:43:39.485Z,5.80
2022-11-12T22:54:04.945Z,5.70
2022-11-12T23:04:27.061Z,5.70
2022-11-12T23:14:50.240Z,5.60
2022-11-12T23:25:12.260Z,5.50
2022-11-12T23:35:35.752Z,5.50
2022-11-12T23:45:58.526Z,5.30
2022-11-12T23:56:22.217Z,5.40
